createdAt,value
2023-02-08T00:01:22.898Z,7.72
2023-02-08T00:03:51.105Z,7.67
2023-02-08T00:06:20.344Z,7.57
2023-02-08T00:08:48.568Z,7.74
2023-02-08T00:11:16.670Z,7.87
2023-02-08T00:13:46.415Z,7.76
2023-02-08T00:16:15.241Z,7.69
2023-02-08T00:18:43.802Z,7.71
2023-02-08T00:21:13.294Z,7.81
2023-02-08T00:23:41.892Z,7.81
2023-02-08T00:26:10.484Z,7.73
2023-02-08T00:28:38.832Z,7.77
2023-02-08T00:31:08.719Z,7.91
2023-02-08T00:33:37.288Z,7.97
2023-02-08T00:36:07.847Z,7.93
2023-02-08T00:38:36.118Z,7.79
2023-02-08T00:41:04.478Z,7.79
2023-02-08T00:43:33.101Z,7.84
2023-02-08T00:46:01.741Z,7.95
2023-02-08T00:48:31.729Z,7.83
2023-02-08T00:51:02.075Z,8.02
2023-02-08T00:53:30.884Z,7.95
2023-02-08T00:55:59.382Z,7.76
2023-02-08T00:58:27.741Z,7.90
2023-02-08T01:00:55.954Z,7.98
2023-02-08T01:03:25.170Z,8.00
2023-02-08T01:05:55.482Z,8.02
2023-02-08T01:08:23.625Z,8.03
2023-02-08T01:10:51.659Z,8.03
2023-02-08T01:13:20.015Z,8.09
2023-02-08T01:15:48.076Z,8.10
2023-02-08T01:18:16.154Z,8.09
2023-02-08T01:20:44.674Z,8.03
2023-02-08T01:23:14.369Z,8.18
2023-02-08T01:25:42.774Z,8.11
2023-02-08T01:28:11.066Z,8.05
2023-02-08T01:30:39.500Z,8.09
2023-02-08T01:33:07.813Z,8.09
2023-02-08T01:35:36.079Z,7.88
2023-02-08T01:38:04.103Z,7.96
2023-02-08T01:40:33.661Z,8.04
2023-02-08T01:43:02.054Z,7.96
2023-02-08T01:45:31.744Z,8.03
2023-02-08T01:48:06.436Z,7.96
2023-02-08T01:50:42.894Z,7.97
2023-02-08T01:53:11.753Z,8.07
2023-02-08T01:55:46.957Z,8.18
2023-02-08T01:58:15.970Z,8.17
2023-02-08T02:00:44.279Z,8.17
2023-02-08T02:03:12.743Z,8.15
2023-02-08T02:05:44.041Z,8.21
2023-02-08T02:08:12.974Z,8.23
2023-02-08T02:10:43.506Z,8.20
2023-02-08T02:13:14.682Z,8.16
2023-02-08T02:15:44.789Z,8.12
2023-02-08T02:18:14.969Z,8.10
2023-02-08T02:21:11.953Z,8.05
2023-02-08T02:24:03.512Z,8.08
2023-02-08T02:27:10.877Z,8.09
2023-02-08T02:30:01.416Z,8.06
2023-02-08T02:32:41.535Z,8.15
2023-02-08T02:35:16.962Z,8.23
2023-02-08T02:37:56.193Z,8.21
2023-02-08T02:40:35.218Z,8.15
2023-02-08T02:43:30.835Z,8.20
2023-02-08T02:46:06.964Z,8.16
2023-02-08T02:48:43.945Z,8.15
2023-02-08T02:51:17.250Z,8.21
2023-02-08T02:53:53.854Z,8.18
2023-02-08T02:56:25.295Z,8.13
2023-02-08T02:58:57.657Z,8.13
2023-02-08T03:01:27.047Z,8.12
2023-02-08T03:03:57.782Z,8.05
2023-02-08T03:06:38.028Z,8.11
2023-02-08T03:09:31.438Z,8.03
2023-02-08T03:12:12.936Z,8.10
2023-02-08T03:14:52.850Z,8.11
2023-02-08T03:17:36.323Z,8.01
2023-02-08T03:20:10.967Z,8.12
2023-02-08T03:22:53.010Z,8.18
2023-02-08T03:25:24.849Z,8.16
2023-02-08T03:28:05.170Z,8.24
2023-02-08T03:30:45.345Z,8.28
2023-02-08T03:33:23.223Z,8.33
2023-02-08T03:35:58.298Z,8.39
2023-02-08T03:38:31.102Z,8.15
2023-02-08T03:41:03.757Z,8.21
2023-02-08T03:43:35.524Z,8.14
2023-02-08T03:46:10.992Z,8.11
2023-02-08T03:48:42.988Z,8.10
2023-02-08T03:51:13.452Z,8.07
2023-02-08T03:53:45.324Z,8.04
2023-02-08T03:56:18.554Z,8.09
2023-02-08T03:58:51.055Z,8.15
2023-02-08T04:01:24.658Z,8.11
2023-02-08T04:03:55.013Z,8.01
2023-02-08T04:06:24.860Z,7.93
2023-02-08T04:08:52.963Z,8.02
2023-02-08T04:11:21.340Z,8.02
2023-02-08T04:13:49.624Z,8.06
2023-02-08T04:16:17.751Z,8.10
2023-02-08T04:18:45.951Z,8.17
2023-02-08T04:21:14.352Z,8.19
2023-02-08T04:23:44.065Z,8.11
2023-02-08T04:26:12.446Z,8.15
2023-02-08T04:28:40.594Z,8.09
2023-02-08T04:31:08.795Z,8.17
2023-02-08T04:33:37.050Z,8.17
2023-02-08T04:36:05.714Z,8.11
2023-02-08T04:38:33.769Z,8.14
2023-02-08T04:41:04.449Z,8.06
2023-02-08T04:43:32.758Z,8.07
2023-02-08T04:46:00.922Z,8.09
2023-02-08T04:48:29.192Z,8.05
2023-02-08T04:50:58.141Z,8.09
2023-02-08T04:53:26.656Z,7.91
2023-02-08T04:55:55.057Z,8.12
2023-02-08T04:58:25.279Z,8.02
2023-02-08T05:00:53.404Z,7.94
2023-02-08T05:03:22.042Z,7.95
2023-02-08T05:05:58.148Z,7.82
2023-02-08T05:08:26.502Z,7.93
2023-02-08T05:10:54.678Z,7.97
2023-02-08T05:13:24.187Z,8.05
2023-02-08T05:15:52.379Z,8.06
2023-02-08T05:18:20.786Z,8.01
2023-02-08T05:20:56.191Z,8.00
2023-02-08T05:23:24.480Z,8.00
2023-02-08T05:25:52.681Z,7.98
2023-02-08T05:28:21.021Z,8.01
2023-02-08T05:30:50.893Z,7.99
2023-02-08T05:33:19.533Z,7.99
2023-02-08T05:35:47.856Z,8.02
2023-02-08T05:38:15.980Z,8.05
2023-02-08T05:40:44.194Z,7.95
2023-02-08T05:43:12.437Z,7.94
2023-02-08T05:45:40.443Z,7.98
2023-02-08T05:48:10.291Z,7.85
2023-02-08T05:50:38.903Z,7.79
2023-02-08T05:53:07.299Z,7.72
2023-02-08T05:55:35.447Z,7.66
2023-02-08T05:58:03.705Z,7.64
2023-02-08T06:00:32.070Z,7.55
2023-02-08T06:03:00.196Z,7.51
2023-02-08T06:05:29.892Z,7.46
2023-02-08T06:07:58.015Z,7.48
2023-02-08T06:10:26.155Z,7.48
2023-02-08T06:12:54.460Z,7.68
2023-02-08T06:15:22.594Z,7.65
2023-02-08T06:17:50.652Z,7.73
2023-02-08T06:20:19.286Z,7.75
2023-02-08T06:22:48.964Z,7.76
2023-02-08T06:25:17.190Z,7.80
2023-02-08T06:27:45.957Z,7.88
2023-02-08T06:30:17.069Z,7.83
2023-02-08T06:32:45.983Z,7.88
2023-02-08T06:35:15.022Z,7.88
2023-02-08T06:37:43.218Z,7.86
2023-02-08T06:40:13.220Z,7.82
2023-02-08T06:42:41.420Z,7.84
2023-02-08T06:45:13.307Z,7.84
2023-02-08T06:47:42.018Z,7.78
2023-02-08T06:50:11.097Z,7.70
2023-02-08T06:52:39.795Z,7.68
2023-02-08T06:55:08.500Z,7.77
2023-02-08T06:57:38.285Z,7.80
2023-02-08T07:00:07.490Z,7.84
2023-02-08T07:02:35.614Z,7.77
2023-02-08T07:05:04.521Z,7.71
2023-02-08T07:07:33.405Z,7.69
2023-02-08T07:10:01.536Z,7.76
2023-02-08T07:12:29.823Z,7.67
2023-02-08T07:14:59.281Z,7.55
2023-02-08T07:17:27.484Z,7.65
2023-02-08T07:19:55.870Z,7.70
2023-02-08T07:22:24.149Z,7.60
2023-02-08T07:24:52.223Z,7.72
2023-02-08T07:27:20.729Z,7.74
2023-02-08T07:29:48.830Z,7.78
2023-02-08T07:32:18.264Z,7.77
2023-02-08T07:34:47.147Z,7.86
2023-02-08T07:37:15.491Z,7.83
2023-02-08T07:39:43.854Z,7.84
2023-02-08T07:42:12.234Z,7.87
2023-02-08T07:44:40.767Z,7.81
2023-02-08T07:47:09.015Z,7.69
2023-02-08T07:49:38.806Z,7.71
2023-02-08T07:52:07.225Z,7.68
2023-02-08T07:54:35.252Z,7.72
2023-02-08T07:57:03.920Z,7.75
2023-02-08T07:59:32.076Z,7.80
2023-02-08T08:02:00.248Z,7.76
2023-02-08T08:04:28.880Z,7.63
2023-02-08T08:06:58.379Z,7.72
2023-02-08T08:09:26.998Z,7.75
2023-02-08T08:11:55.289Z,7.65
2023-02-08T08:14:23.440Z,7.76
2023-02-08T08:16:51.554Z,7.78
2023-02-08T08:19:19.718Z,7.73
2023-02-08T08:21:47.946Z,7.60
2023-02-08T08:24:17.531Z,7.67
2023-02-08T08:26:45.889Z,7.67
2023-02-08T08:29:14.987Z,7.62
2023-02-08T08:31:44.806Z,7.62
2023-02-08T08:34:13.175Z,7.46
2023-02-08T08:36:41.428Z,7.49
2023-02-08T08:39:09.547Z,7.49
2023-02-08T08:41:39.199Z,7.56
2023-02-08T08:44:07.312Z,7.57
2023-02-08T08:46:35.474Z,7.59
2023-02-08T08:49:03.753Z,7.61
2023-02-08T08:51:35.337Z,7.63
2023-02-08T08:54:03.453Z,7.73
2023-02-08T08:56:32.249Z,7.80
2023-02-08T08:59:09.655Z,7.81
2023-02-08T09:01:39.133Z,7.74
2023-02-08T09:04:07.284Z,7.77
2023-02-08T09:06:36.205Z,7.75
2023-02-08T09:09:05.285Z,7.73
2023-02-08T09:11:38.853Z,7.68
2023-02-08T09:14:08.742Z,7.67
2023-02-08T09:16:36.916Z,7.73
2023-02-08T09:19:06.583Z,7.78
2023-02-08T09:21:35.229Z,7.71
2023-02-08T09:24:03.848Z,7.64
2023-02-08T09:26:32.028Z,7.59
2023-02-08T09:29:01.025Z,7.56
2023-02-08T09:31:32.729Z,7.75
2023-02-08T09:34:02.726Z,7.75
2023-02-08T09:36:34.917Z,7.73
2023-02-08T09:39:06.393Z,7.81
2023-02-08T09:41:47.348Z,7.91
2023-02-08T09:44:24.621Z,7.89
2023-02-08T09:47:03.140Z,7.76
2023-02-08T09:49:38.267Z,7.74
2023-02-08T09:52:12.777Z,7.65
2023-02-08T09:54:45.115Z,7.75
2023-02-08T09:57:17.926Z,7.76
2023-02-08T09:59:54.184Z,7.66
2023-02-08T10:02:27.628Z,7.68
2023-02-08T10:05:02.959Z,7.74
2023-02-08T10:07:32.231Z,7.66
2023-02-08T10:10:03.487Z,7.70
2023-02-08T10:12:40.942Z,7.68
2023-02-08T10:15:27.150Z,7.65
2023-02-08T10:18:12.541Z,7.54
2023-02-08T10:20:57.413Z,7.64
2023-02-08T10:23:40.678Z,7.52
2023-02-08T10:26:15.996Z,7.69
2023-02-08T10:29:11.872Z,7.61
2023-02-08T10:32:04.304Z,7.59
2023-02-08T10:34:47.926Z,7.56
2023-02-08T10:37:19.168Z,7.63
2023-02-08T10:39:48.886Z,7.75
2023-02-08T10:42:18.950Z,7.83
2023-02-08T10:45:06.545Z,7.87
2023-02-08T10:47:50.795Z,7.75
2023-02-08T10:50:33.703Z,7.74
2023-02-08T10:53:18.918Z,7.78
2023-02-08T10:55:57.897Z,7.97
2023-02-08T10:58:29.773Z,7.97
2023-02-08T11:01:01.936Z,7.91
2023-02-08T11:03:35.037Z,7.78
2023-02-08T11:06:26.501Z,7.80
2023-02-08T11:08:58.947Z,7.89
2023-02-08T11:11:30.274Z,7.91
2023-02-08T11:14:09.667Z,8.07
2023-02-08T11:16:49.731Z,8.06
2023-02-08T11:19:24.244Z,7.96
2023-02-08T11:21:56.313Z,8.11
2023-02-08T11:24:29.337Z,8.07
2023-02-08T11:27:11.924Z,8.02
2023-02-08T11:29:47.933Z,8.08
2023-02-08T11:32:28.034Z,8.19
2023-02-08T11:35:15.861Z,8.03
2023-02-08T11:37:51.135Z,8.12
2023-02-08T11:40:29.823Z,8.17
2023-02-08T11:42:59.061Z,8.12
2023-02-08T11:45:32.380Z,8.19
2023-02-08T11:48:02.346Z,8.26
2023-02-08T11:50:34.183Z,8.11
2023-02-08T11:53:06.627Z,8.08
2023-02-08T11:55:36.436Z,8.02
2023-02-08T11:58:07.096Z,8.13
2023-02-08T12:00:37.820Z,8.11
2023-02-08T12:03:11.352Z,8.10
2023-02-08T12:05:48.715Z,7.98
2023-02-08T12:08:27.035Z,8.17
2023-02-08T12:11:21.448Z,8.14
2023-02-08T12:14:07.421Z,8.02
2023-02-08T12:16:52.617Z,8.13
2023-02-08T12:20:03.565Z,8.18
2023-02-08T12:22:32.480Z,8.16
2023-02-08T12:25:18.727Z,8.20
2023-02-08T12:27:56.104Z,8.27
2023-02-08T12:30:31.643Z,8.15
2023-02-08T12:33:29.974Z,8.19
2023-02-08T12:36:24.154Z,8.28
2023-02-08T12:39:26.029Z,8.23
2023-02-08T12:42:10.773Z,8.19
2023-02-08T12:44:53.167Z,8.10
2023-02-08T12:47:38.807Z,8.19
2023-02-08T12:50:20.070Z,8.19
2023-02-08T12:52:52.941Z,8.19
2023-02-08T12:55:28.791Z,8.23
2023-02-08T12:58:01.635Z,8.12
2023-02-08T13:00:34.116Z,8.01
2023-02-08T13:03:09.237Z,7.91
2023-02-08T13:05:50.791Z,7.91
2023-02-08T13:08:33.496Z,8.01
2023-02-08T13:11:19.056Z,8.06
2023-02-08T13:14:00.156Z,8.01
2023-02-08T13:16:35.029Z,7.84
2023-02-08T13:19:25.887Z,7.84
2023-02-08T13:21:55.879Z,7.74
2023-02-08T13:24:34.725Z,7.74
2023-02-08T13:27:03.694Z,7.70
2023-02-08T13:29:34.241Z,7.60
2023-02-08T13:32:07.913Z,7.64
2023-02-08T13:34:40.500Z,7.64
2023-02-08T13:37:25.272Z,7.68
2023-02-08T13:40:02.409Z,7.68
2023-02-08T13:42:34.864Z,7.71
2023-02-08T13:45:07.351Z,7.62
2023-02-08T13:47:43.433Z,7.68
2023-02-08T13:50:46.929Z,7.48
2023-02-08T13:53:17.694Z,7.56
2023-02-08T13:55:58.272Z,7.37
2023-02-08T13:59:05.823Z,7.18
2023-02-08T14:01:37.307Z,7.14
2023-02-08T14:04:36.480Z,7.19
2023-02-08T14:07:17.566Z,7.17
2023-02-08T14:09:52.386Z,7.15
2023-02-08T14:12:27.834Z,7.19
2023-02-08T14:15:30.999Z,7.13
2023-02-08T14:18:01.863Z,7.06
2023-02-08T14:20:35.051Z,6.94
2023-02-08T14:23:05.666Z,6.93
2023-02-08T14:25:43.743Z,6.91
2023-02-08T14:28:38.573Z,6.81
2023-02-08T14:31:09.550Z,6.93
2023-02-08T14:33:44.014Z,6.91
2023-02-08T14:36:29.054Z,6.89
2023-02-08T14:39:24.685Z,7.08
2023-02-08T14:41:57.754Z,7.15
2023-02-08T14:45:02.044Z,6.93
2023-02-08T14:48:19.298Z,7.14
2023-02-08T14:51:08.233Z,7.02
2023-02-08T14:53:44.918Z,6.93
2023-02-08T14:56:24.602Z,6.94
2023-02-08T14:58:56.785Z,6.84
2023-02-08T15:01:44.021Z,6.89
2023-02-08T15:04:14.625Z,6.92
2023-02-08T15:07:02.612Z,6.79
2023-02-08T15:09:32.906Z,6.70
2023-02-08T15:12:06.662Z,6.86
2023-02-08T15:14:37.481Z,6.84
2023-02-08T15:17:07.239Z,6.81
2023-02-08T15:19:38.963Z,6.71
2023-02-08T15:22:32.956Z,6.81
2023-02-08T15:25:07.538Z,6.85
2023-02-08T15:27:36.595Z,6.91
2023-02-08T15:30:08.510Z,7.08
2023-02-08T15:32:37.849Z,6.96
2023-02-08T15:35:07.100Z,7.06
2023-02-08T15:37:37.415Z,6.86
2023-02-08T15:40:06.538Z,6.74
2023-02-08T15:42:35.813Z,6.87
2023-02-08T15:45:05.013Z,6.73
2023-02-08T15:47:37.906Z,6.67
2023-02-08T15:50:09.826Z,6.63
2023-02-08T15:52:39.925Z,6.66
2023-02-08T15:55:10.537Z,6.70
2023-02-08T15:57:45.009Z,6.82
2023-02-08T16:00:18.280Z,6.84
2023-02-08T16:02:54.280Z,6.80
2023-02-08T16:05:25.614Z,6.97
2023-02-08T16:07:58.976Z,6.77
2023-02-08T16:10:34.908Z,6.72
2023-02-08T16:13:06.423Z,6.73
2023-02-08T16:15:36.900Z,6.78
2023-02-08T16:18:05.591Z,6.59
2023-02-08T16:20:37.356Z,6.59
2023-02-08T16:23:27.044Z,6.65
2023-02-08T16:26:11.289Z,6.61
2023-02-08T16:28:40.559Z,6.72
2023-02-08T16:31:09.297Z,6.58
2023-02-08T16:33:39.728Z,6.53
2023-02-08T16:36:07.849Z,6.31
2023-02-08T16:38:38.063Z,6.50
2023-02-08T16:41:14.532Z,6.38
2023-02-08T16:43:44.820Z,6.45
2023-02-08T16:46:25.403Z,6.32
2023-02-08T16:48:56.272Z,6.41
2023-02-08T16:51:27.871Z,6.39
2023-02-08T16:54:02.488Z,6.49
2023-02-08T16:56:30.974Z,6.46
2023-02-08T16:59:10.286Z,6.41
2023-02-08T17:01:39.738Z,6.36
2023-02-08T17:04:08.108Z,6.20
2023-02-08T17:06:38.740Z,6.47
2023-02-08T17:09:10.597Z,6.30
2023-02-08T17:11:39.543Z,6.15
2023-02-08T17:14:08.859Z,6.43
2023-02-08T17:16:39.067Z,6.36
2023-02-08T17:19:07.436Z,6.46
2023-02-08T17:21:35.616Z,6.49
2023-02-08T17:24:04.233Z,6.48
2023-02-08T17:26:41.442Z,6.07
2023-02-08T17:29:10.275Z,6.52
2023-02-08T17:31:38.494Z,6.60
2023-02-08T17:34:06.944Z,6.28
2023-02-08T17:36:38.032Z,6.28
2023-02-08T17:39:07.806Z,6.45
2023-02-08T17:41:37.380Z,6.64
2023-02-08T17:44:06.309Z,6.36
2023-02-08T17:46:34.896Z,6.43
2023-02-08T17:49:04.597Z,6.58
2023-02-08T17:51:33.269Z,6.17
2023-02-08T17:54:05.884Z,6.50
2023-02-08T17:56:35.679Z,6.71
2023-02-08T17:59:29.851Z,6.65
2023-02-08T18:01:58.161Z,6.68
2023-02-08T18:04:26.299Z,6.69
2023-02-08T18:06:54.754Z,6.64
2023-02-08T18:09:23.268Z,6.45
2023-02-08T18:11:53.409Z,6.64
2023-02-08T18:14:23.144Z,6.58
2023-02-08T18:16:51.447Z,6.57
2023-02-08T18:19:20.713Z,6.64
2023-02-08T18:21:48.797Z,6.58
2023-02-08T18:24:17.703Z,6.43
2023-02-08T18:26:46.363Z,6.28
2023-02-08T18:29:14.498Z,6.31
2023-02-08T18:31:44.638Z,6.38
2023-02-08T18:34:13.554Z,6.40
2023-02-08T18:36:41.944Z,6.34
2023-02-08T18:39:10.591Z,6.23
2023-02-08T18:41:38.999Z,6.29
2023-02-08T18:44:08.359Z,5.85
2023-02-08T18:46:39.371Z,6.33
2023-02-08T18:49:08.838Z,6.09
2023-02-08T18:51:43.387Z,6.15
2023-02-08T18:54:12.496Z,5.98
2023-02-08T18:56:42.577Z,6.03
2023-02-08T18:59:11.737Z,5.88
2023-02-08T19:01:40.624Z,5.75
2023-02-08T19:04:10.327Z,5.93
2023-02-08T19:06:39.302Z,6.04
2023-02-08T19:09:08.894Z,5.53
2023-02-08T19:11:41.598Z,5.94
2023-02-08T19:14:13.438Z,5.62
2023-02-08T19:16:43.112Z,6.01
2023-02-08T19:19:12.981Z,6.22
2023-02-08T19:21:41.139Z,6.21
2023-02-08T19:24:09.353Z,6.22
2023-02-08T19:26:39.872Z,6.21
2023-02-08T19:29:09.636Z,6.07
2023-02-08T19:31:39.474Z,5.99
2023-02-08T19:34:08.242Z,5.87
2023-02-08T19:36:40.067Z,6.31
2023-02-08T19:39:09.414Z,6.05
2023-02-08T19:41:39.981Z,6.03
2023-02-08T19:44:10.061Z,6.27
2023-02-08T19:46:40.026Z,6.15
2023-02-08T19:49:08.837Z,6.12
2023-02-08T19:51:38.766Z,6.32
2023-02-08T19:54:10.363Z,6.28
2023-02-08T19:56:38.748Z,6.08
2023-02-08T19:59:08.871Z,5.66
2023-02-08T20:01:37.250Z,6.09
2023-02-08T20:04:06.564Z,5.97
2023-02-08T20:06:39.337Z,6.23
2023-02-08T20:09:08.561Z,5.40
2023-02-08T20:11:51.212Z,5.29
2023-02-08T20:14:25.538Z,5.79
2023-02-08T20:16:56.115Z,6.23
2023-02-08T20:19:24.696Z,6.26
2023-02-08T20:21:54.446Z,6.30
2023-02-08T20:24:22.962Z,6.18
2023-02-08T20:26:55.672Z,5.93
2023-02-08T20:29:24.341Z,6.30
2023-02-08T20:31:55.813Z,6.18
2023-02-08T20:34:37.998Z,6.30
2023-02-08T20:40:28.468Z,5.90
2023-02-08T20:42:56.694Z,6.27
2023-02-08T20:45:25.556Z,6.40
2023-02-08T20:47:54.197Z,6.46
2023-02-08T20:50:23.102Z,6.16
2023-02-08T20:52:51.967Z,6.07
2023-02-08T20:55:20.500Z,6.40
2023-02-08T20:57:50.160Z,5.90
2023-02-08T21:00:18.862Z,6.12
2023-02-08T21:02:47.407Z,6.35
2023-02-08T21:05:15.735Z,6.18
2023-02-08T21:07:43.898Z,6.39
2023-02-08T21:10:12.262Z,6.25
2023-02-08T21:12:41.199Z,5.93
2023-02-08T21:15:11.604Z,6.28
2023-02-08T21:17:41.097Z,6.35
2023-02-08T21:20:10.190Z,6.00
2023-02-08T21:22:38.434Z,6.26
2023-02-08T21:25:07.255Z,6.24
2023-02-08T21:27:35.409Z,6.43
2023-02-08T21:30:03.679Z,6.42
2023-02-08T21:32:33.276Z,5.91
2023-02-08T21:35:01.342Z,6.20
2023-02-08T21:37:29.381Z,6.16
2023-02-08T21:39:57.612Z,6.27
2023-02-08T21:42:25.858Z,6.30
2023-02-08T21:44:54.087Z,6.00
2023-02-08T21:47:23.644Z,5.68
2023-02-08T21:50:10.686Z,6.10
2023-02-08T21:52:56.657Z,6.33
2023-02-08T21:55:24.758Z,5.86
2023-02-08T21:57:53.115Z,6.16
2023-02-08T22:00:21.440Z,6.15
2023-02-08T22:02:52.545Z,6.17
2023-02-08T22:05:22.389Z,6.20
2023-02-08T22:07:52.693Z,6.17
2023-02-08T22:10:23.446Z,6.03
2023-02-08T22:12:52.609Z,5.97
2023-02-08T22:15:23.357Z,6.03
2023-02-08T22:17:53.697Z,6.08
2023-02-08T22:20:24.902Z,5.99
2023-02-08T22:22:55.216Z,5.17
2023-02-08T22:25:23.966Z,6.07
2023-02-08T22:27:52.542Z,6.15
2023-02-08T22:30:22.824Z,6.14
2023-02-08T22:32:52.522Z,6.14
2023-02-08T22:35:22.459Z,5.69
2023-02-08T22:37:50.769Z,5.50
2023-02-08T22:40:19.300Z,6.13
2023-02-08T22:42:47.692Z,6.17
2023-02-08T22:45:15.941Z,5.87
2023-02-08T22:47:45.960Z,5.81
2023-02-08T22:50:15.145Z,6.11
2023-02-08T22:52:44.648Z,6.04
2023-02-08T22:58:09.201Z,5.98
2023-02-08T23:00:37.822Z,6.14
2023-02-08T23:06:02.135Z,5.67
2023-02-08T23:08:31.700Z,5.88
2023-02-08T23:11:01.814Z,5.48
2023-02-08T23:13:31.165Z,6.01
2023-02-08T23:15:59.552Z,5.66
2023-02-08T23:18:28.155Z,5.90
2023-02-08T23:20:56.586Z,5.88
2023-02-08T23:23:24.916Z,5.73
2023-02-08T23:25:54.395Z,5.62
2023-02-08T23:28:23.563Z,6.10
2023-02-08T23:30:51.816Z,5.94
2023-02-08T23:33:20.144Z,5.90
2023-02-08T23:35:48.879Z,5.90
2023-02-08T23:38:17.360Z,6.03
2023-02-08T23:40:45.789Z,6.04
2023-02-08T23:43:15.685Z,5.90
2023-02-08T23:45:43.778Z,6.06
2023-02-08T23:48:11.894Z,6.03
2023-02-08T23:50:40.126Z,6.04
2023-02-08T23:53:08.132Z,5.82
2023-02-08T23:55:36.190Z,5.91
2023-02-08T23:58:04.552Z,5.86
